sensor_id;sensor_type;location;lat;lon;timestamp;P1;durP1;ratioP1;P2;durP2;ratioP2
8365;SDS011;4220;42.502;24.188;2022-12-28T00:01:34;7.90;;;5.50;;
8365;SDS011;4220;42.502;24.188;2022-12-28T00:04:02;9.23;;;5.63;;
8365;SDS011;4220;42.502;24.188;2022-12-28T00:06:30;10.87;;;6.57;;
8365;SDS011;4220;42.502;24.188;2022-12-28T00:08:58;12.07;;;7.97;;
8365;SDS011;4220;42.502;24.188;2022-12-28T00:11:26;15.20;;;10.80;;
8365;SDS011;4220;42.502;24.188;2022-12-28T00:13:53;15.47;;;9.97;;
8365;SDS011;4220;42.502;24.188;2022-12-28T00:16:23;14.23;;;9.80;;
8365;SDS011;4220;42.502;24.188;2022-12-28T00:18:52;11.63;;;8.00;;
8365;SDS011;4220;42.502;24.188;2022-12-28T00:21:19;7.13;;;5.20;;
8365;SDS011;4220;42.502;24.188;2022-12-28T00:23:47;6.40;;;4.47;;
8365;SDS011;4220;42.502;24.188;2022-12-28T00:26:15;5.80;;;4.20;;
8365;SDS011;4220;42.502;24.188;2022-12-28T00:28:42;7.10;;;4.67;;
8365;SDS011;4220;42.502;24.188;2022-12-28T00:31:08;8.47;;;4.23;;
8365;SDS011;4220;42.502;24.188;2022-12-28T00:33:36;8.37;;;5.33;;
8365;SDS011;4220;42.502;24.188;2022-12-28T00:36:04;7.97;;;4.50;;
8365;SDS011;4220;42.502;24.188;2022-12-28T00:38:33;9.80;;;6.20;;
8365;SDS011;4220;42.502;24.188;2022-12-28T00:41:01;5.43;;;3.70;;
8365;SDS011;4220;42.502;24.188;2022-12-28T00:43:28;6.30;;;4.27;;
8365;SDS011;4220;42.502;24.188;2022-12-28T00:45:55;29.60;;;20.53;;
8365;SDS011;4220;42.502;24.188;2022-12-28T00:48:22;25.97;;;16.17;;
8365;SDS011;4220;42.502;24.188;2022-12-28T00:50:49;10.03;;;5.57;;
8365;SDS011;4220;42.502;24.188;2022-12-28T00:53:17;4.27;;;3.60;;
8365;SDS011;4220;42.502;24.188;2022-12-28T00:55:45;4.70;;;3.87;;
8365;SDS011;4220;42.502;24.188;2022-12-28T00:58:12;6.37;;;4.50;;
8365;SDS011;4220;42.502;24.188;2022-12-28T01:00:39;7.13;;;4.70;;
8365;SDS011;4220;42.502;24.188;2022-12-28T01:03:06;7.10;;;4.70;;
8365;SDS011;4220;42.502;24.188;2022-12-28T01:05:32;4.97;;;4.07;;
8365;SDS011;4220;42.502;24.188;2022-12-28T01:07:59;6.40;;;4.47;;
8365;SDS011;4220;42.502;24.188;2022-12-28T01:10:27;6.73;;;4.80;;
8365;SDS011;4220;42.502;24.188;2022-12-28T01:12:54;8.07;;;4.77;;
8365;SDS011;4220;42.502;24.188;2022-12-28T01:15:21;6.03;;;4.77;;
8365;SDS011;4220;42.502;24.188;2022-12-28T01:17:48;7.27;;;5.30;;
8365;SDS011;4220;42.502;24.188;2022-12-28T01:20:14;7.70;;;5.93;;
8365;SDS011;4220;42.502;24.188;2022-12-28T01:22:41;10.13;;;6.90;;
8365;SDS011;4220;42.502;24.188;2022-12-28T01:25:08;13.67;;;8.40;;
8365;SDS011;4220;42.502;24.188;2022-12-28T01:27:38;13.10;;;8.97;;
8365;SDS011;4220;42.502;24.188;2022-12-28T01:30:06;13.37;;;9.27;;
8365;SDS011;4220;42.502;24.188;2022-12-28T01:32:34;11.60;;;8.33;;
8365;SDS011;4220;42.502;24.188;2022-12-28T01:35:01;12.97;;;9.23;;
8365;SDS011;4220;42.502;24.188;2022-12-28T01:37:28;20.60;;;11.60;;
8365;SDS011;4220;42.502;24.188;2022-12-28T01:39:54;13.63;;;9.27;;
8365;SDS011;4220;42.502;24.188;2022-12-28T01:42:21;10.03;;;7.80;;
8365;SDS011;4220;42.502;24.188;2022-12-28T01:44:50;14.30;;;9.23;;
8365;SDS011;4220;42.502;24.188;2022-12-28T01:47:18;16.27;;;8.53;;
8365;SDS011;4220;42.502;24.188;2022-12-28T01:49:56;12.00;;;7.83;;
8365;SDS011;4220;42.502;24.188;2022-12-28T01:52:29;16.17;;;11.83;;
8365;SDS011;4220;42.502;24.188;2022-12-28T01:55:04;14.00;;;7.90;;
8365;SDS011;4220;42.502;24.188;2022-12-28T01:57:35;13.80;;;8.53;;
8365;SDS011;4220;42.502;24.188;2022-12-28T02:00:07;9.17;;;6.73;;
8365;SDS011;4220;42.502;24.188;2022-12-28T02:02:36;9.07;;;7.23;;
8365;SDS011;4220;42.502;24.188;2022-12-28T02:05:03;12.00;;;7.77;;
8365;SDS011;4220;42.502;24.188;2022-12-28T02:07:34;11.20;;;8.13;;
8365;SDS011;4220;42.502;24.188;2022-12-28T02:10:06;8.90;;;7.37;;
8365;SDS011;4220;42.502;24.188;2022-12-28T02:12:35;8.63;;;6.20;;
8365;SDS011;4220;42.502;24.188;2022-12-28T02:15:02;6.70;;;5.53;;
8365;SDS011;4220;42.502;24.188;2022-12-28T02:17:31;6.13;;;5.40;;
8365;SDS011;4220;42.502;24.188;2022-12-28T02:19:58;8.00;;;6.43;;
8365;SDS011;4220;42.502;24.188;2022-12-28T02:22:32;9.80;;;5.67;;
8365;SDS011;4220;42.502;24.188;2022-12-28T02:31:35;9.17;;;6.30;;
8365;SDS011;4220;42.502;24.188;2022-12-28T02:34:10;9.67;;;6.67;;
8365;SDS011;4220;42.502;24.188;2022-12-28T02:36:45;6.87;;;4.87;;
8365;SDS011;4220;42.502;24.188;2022-12-28T02:39:20;8.03;;;6.03;;
8365;SDS011;4220;42.502;24.188;2022-12-28T02:41:50;6.43;;;5.30;;
8365;SDS011;4220;42.502;24.188;2022-12-28T02:44:19;5.67;;;5.07;;
8365;SDS011;4220;42.502;24.188;2022-12-28T02:47:01;6.50;;;5.40;;
8365;SDS011;4220;42.502;24.188;2022-12-28T02:49:46;8.03;;;5.97;;
8365;SDS011;4220;42.502;24.188;2022-12-28T02:52:32;8.73;;;6.30;;
8365;SDS011;4220;42.502;24.188;2022-12-28T02:55:22;7.23;;;6.30;;
8365;SDS011;4220;42.502;24.188;2022-12-28T02:58:24;7.17;;;5.33;;
8365;SDS011;4220;42.502;24.188;2022-12-28T03:01:10;5.93;;;4.97;;
8365;SDS011;4220;42.502;24.188;2022-12-28T03:03:48;7.03;;;5.30;;
8365;SDS011;4220;42.502;24.188;2022-12-28T03:06:29;7.63;;;5.73;;
8365;SDS011;4220;42.502;24.188;2022-12-28T03:09:24;6.40;;;5.50;;
8365;SDS011;4220;42.502;24.188;2022-12-28T03:11:57;9.53;;;7.03;;
8365;SDS011;4220;42.502;24.188;2022-12-28T03:14:31;10.63;;;7.70;;
8365;SDS011;4220;42.502;24.188;2022-12-28T03:17:01;9.03;;;6.80;;
8365;SDS011;4220;42.502;24.188;2022-12-28T03:19:55;7.13;;;4.83;;
8365;SDS011;4220;42.502;24.188;2022-12-28T03:22:42;6.83;;;5.63;;
8365;SDS011;4220;42.502;24.188;2022-12-28T03:25:32;6.33;;;5.67;;
8365;SDS011;4220;42.502;24.188;2022-12-28T03:28:20;6.40;;;5.70;;
8365;SDS011;4220;42.502;24.188;2022-12-28T03:31:11;7.87;;;6.17;;
8365;SDS011;4220;42.502;24.188;2022-12-28T03:33:42;7.37;;;5.47;;
8365;SDS011;4220;42.502;24.188;2022-12-28T03:36:14;7.63;;;5.97;;
8365;SDS011;4220;42.502;24.188;2022-12-28T03:38:47;10.13;;;6.77;;
8365;SDS011;4220;42.502;24.188;2022-12-28T03:41:19;7.70;;;6.20;;
8365;SDS011;4220;42.502;24.188;2022-12-28T03:43:55;7.60;;;5.87;;
8365;SDS011;4220;42.502;24.188;2022-12-28T03:46:29;7.87;;;6.63;;
8365;SDS011;4220;42.502;24.188;2022-12-28T03:49:03;8.70;;;7.20;;
8365;SDS011;4220;42.502;24.188;2022-12-28T03:51:31;11.80;;;8.90;;
8365;SDS011;4220;42.502;24.188;2022-12-28T03:54:00;12.57;;;9.23;;
8365;SDS011;4220;42.502;24.188;2022-12-28T03:56:27;9.80;;;6.63;;
8365;SDS011;4220;42.502;24.188;2022-12-28T03:58:54;8.57;;;5.97;;
8365;SDS011;4220;42.502;24.188;2022-12-28T04:01:22;5.93;;;4.97;;
8365;SDS011;4220;42.502;24.188;2022-12-28T04:03:49;5.60;;;4.90;;
8365;SDS011;4220;42.502;24.188;2022-12-28T04:06:16;5.83;;;3.80;;
8365;SDS011;4220;42.502;24.188;2022-12-28T04:08:46;16.77;;;8.20;;
8365;SDS011;4220;42.502;24.188;2022-12-28T04:11:13;7.83;;;5.00;;
8365;SDS011;4220;42.502;24.188;2022-12-28T04:13:40;7.37;;;5.17;;
8365;SDS011;4220;42.502;24.188;2022-12-28T04:16:07;6.53;;;4.80;;
8365;SDS011;4220;42.502;24.188;2022-12-28T04:18:36;7.60;;;5.57;;
8365;SDS011;4220;42.502;24.188;2022-12-28T04:21:03;13.97;;;9.77;;
8365;SDS011;4220;42.502;24.188;2022-12-28T04:23:31;11.83;;;8.63;;
8365;SDS011;4220;42.502;24.188;2022-12-28T04:26:00;16.03;;;10.50;;
8365;SDS011;4220;42.502;24.188;2022-12-28T04:28:28;21.93;;;12.87;;
8365;SDS011;4220;42.502;24.188;2022-12-28T04:30:55;19.83;;;12.60;;
8365;SDS011;4220;42.502;24.188;2022-12-28T04:33:22;20.57;;;12.97;;
8365;SDS011;4220;42.502;24.188;2022-12-28T04:35:49;23.07;;;12.70;;
8365;SDS011;4220;42.502;24.188;2022-12-28T04:38:16;18.67;;;12.17;;
8365;SDS011;4220;42.502;24.188;2022-12-28T04:40:44;23.77;;;14.97;;
8365;SDS011;4220;42.502;24.188;2022-12-28T04:43:12;22.57;;;15.50;;
8365;SDS011;4220;42.502;24.188;2022-12-28T04:45:39;24.50;;;14.87;;
8365;SDS011;4220;42.502;24.188;2022-12-28T04:48:06;20.73;;;14.63;;
8365;SDS011;4220;42.502;24.188;2022-12-28T04:50:32;17.10;;;13.00;;
8365;SDS011;4220;42.502;24.188;2022-12-28T04:53:01;16.20;;;12.03;;
8365;SDS011;4220;42.502;24.188;2022-12-28T04:55:28;18.53;;;12.83;;
8365;SDS011;4220;42.502;24.188;2022-12-28T04:57:55;32.30;;;23.37;;
8365;SDS011;4220;42.502;24.188;2022-12-28T05:00:23;26.67;;;17.40;;
8365;SDS011;4220;42.502;24.188;2022-12-28T05:02:50;25.33;;;17.57;;
8365;SDS011;4220;42.502;24.188;2022-12-28T05:05:16;19.37;;;14.97;;
8365;SDS011;4220;42.502;24.188;2022-12-28T05:07:43;19.57;;;15.50;;
8365;SDS011;4220;42.502;24.188;2022-12-28T05:10:10;27.17;;;20.43;;
8365;SDS011;4220;42.502;24.188;2022-12-28T05:12:37;19.77;;;15.37;;
8365;SDS011;4220;42.502;24.188;2022-12-28T05:15:04;27.93;;;18.83;;
8365;SDS011;4220;42.502;24.188;2022-12-28T05:17:33;381.70;;;175.57;;
8365;SDS011;4220;42.502;24.188;2022-12-28T05:20:00;115.77;;;50.83;;
8365;SDS011;4220;42.502;24.188;2022-12-28T05:22:27;29.23;;;21.30;;
8365;SDS011;4220;42.502;24.188;2022-12-28T05:24:54;29.47;;;19.20;;
8365;SDS011;4220;42.502;24.188;2022-12-28T05:27:20;21.30;;;17.20;;
8365;SDS011;4220;42.502;24.188;2022-12-28T05:29:47;24.93;;;16.40;;
8365;SDS011;4220;42.502;24.188;2022-12-28T05:32:14;13.37;;;10.90;;
8365;SDS011;4220;42.502;24.188;2022-12-28T05:34:42;11.53;;;8.20;;
8365;SDS011;4220;42.502;24.188;2022-12-28T05:37:09;7.83;;;6.30;;
8365;SDS011;4220;42.502;24.188;2022-12-28T05:39:36;13.23;;;9.13;;
8365;SDS011;4220;42.502;24.188;2022-12-28T05:42:03;15.90;;;10.00;;
8365;SDS011;4220;42.502;24.188;2022-12-28T05:44:30;108.27;;;69.83;;
8365;SDS011;4220;42.502;24.188;2022-12-28T05:46:57;353.33;;;211.57;;
8365;SDS011;4220;42.502;24.188;2022-12-28T05:49:24;81.97;;;49.33;;
8365;SDS011;4220;42.502;24.188;2022-12-28T05:51:52;110.10;;;62.33;;
8365;SDS011;4220;42.502;24.188;2022-12-28T05:54:19;133.63;;;80.83;;
8365;SDS011;4220;42.502;24.188;2022-12-28T05:56:48;125.90;;;75.33;;
8365;SDS011;4220;42.502;24.188;2022-12-28T05:59:16;126.87;;;65.07;;
8365;SDS011;4220;42.502;24.188;2022-12-28T06:01:43;91.60;;;49.10;;
8365;SDS011;4220;42.502;24.188;2022-12-28T06:04:12;54.40;;;36.47;;
8365;SDS011;4220;42.502;24.188;2022-12-28T06:06:41;364.17;;;239.83;;
8365;SDS011;4220;42.502;24.188;2022-12-28T06:09:09;162.17;;;95.80;;
8365;SDS011;4220;42.502;24.188;2022-12-28T06:11:36;128.80;;;89.10;;
8365;SDS011;4220;42.502;24.188;2022-12-28T06:14:03;62.23;;;40.00;;
8365;SDS011;4220;42.502;24.188;2022-12-28T06:16:31;37.20;;;27.67;;
8365;SDS011;4220;42.502;24.188;2022-12-28T06:19:02;40.00;;;28.13;;
8365;SDS011;4220;42.502;24.188;2022-12-28T06:21:30;43.47;;;31.03;;
8365;SDS011;4220;42.502;24.188;2022-12-28T06:23:59;43.63;;;31.77;;
8365;SDS011;4220;42.502;24.188;2022-12-28T06:26:29;43.77;;;29.83;;
8365;SDS011;4220;42.502;24.188;2022-12-28T06:28:57;25.40;;;18.23;;
8365;SDS011;4220;42.502;24.188;2022-12-28T06:31:26;35.67;;;25.90;;
8365;SDS011;4220;42.502;24.188;2022-12-28T06:33:55;26.47;;;19.73;;
8365;SDS011;4220;42.502;24.188;2022-12-28T06:36:23;50.20;;;31.07;;
8365;SDS011;4220;42.502;24.188;2022-12-28T06:38:52;64.87;;;41.87;;
8365;SDS011;4220;42.502;24.188;2022-12-28T06:41:21;64.77;;;41.40;;
8365;SDS011;4220;42.502;24.188;2022-12-28T06:43:50;66.50;;;43.43;;
8365;SDS011;4220;42.502;24.188;2022-12-28T06:46:18;67.73;;;39.43;;
8365;SDS011;4220;42.502;24.188;2022-12-28T06:48:46;101.77;;;66.20;;
8365;SDS011;4220;42.502;24.188;2022-12-28T06:51:13;70.43;;;47.57;;
8365;SDS011;4220;42.502;24.188;2022-12-28T06:53:41;54.40;;;33.33;;
8365;SDS011;4220;42.502;24.188;2022-12-28T06:56:09;49.93;;;30.97;;
8365;SDS011;4220;42.502;24.188;2022-12-28T06:58:38;49.67;;;31.57;;
8365;SDS011;4220;42.502;24.188;2022-12-28T07:01:07;52.40;;;33.07;;
8365;SDS011;4220;42.502;24.188;2022-12-28T07:03:38;67.63;;;41.67;;
8365;SDS011;4220;42.502;24.188;2022-12-28T07:06:05;70.40;;;41.57;;
8365;SDS011;4220;42.502;24.188;2022-12-28T07:08:32;72.40;;;41.30;;
8365;SDS011;4220;42.502;24.188;2022-12-28T07:11:03;81.07;;;48.43;;
8365;SDS011;4220;42.502;24.188;2022-12-28T07:13:31;86.60;;;50.63;;
8365;SDS011;4220;42.502;24.188;2022-12-28T07:16:00;104.80;;;56.80;;
8365;SDS011;4220;42.502;24.188;2022-12-28T07:18:29;70.87;;;42.67;;
8365;SDS011;4220;42.502;24.188;2022-12-28T07:21:00;37.47;;;22.23;;
8365;SDS011;4220;42.502;24.188;2022-12-28T07:23:27;44.50;;;32.40;;
8365;SDS011;4220;42.502;24.188;2022-12-28T07:25:55;59.10;;;43.03;;
8365;SDS011;4220;42.502;24.188;2022-12-28T07:28:23;61.97;;;43.33;;
8365;SDS011;4220;42.502;24.188;2022-12-28T07:30:50;57.73;;;44.00;;
8365;SDS011;4220;42.502;24.188;2022-12-28T07:33:16;64.77;;;45.33;;
8365;SDS011;4220;42.502;24.188;2022-12-28T07:35:45;101.93;;;65.67;;
8365;SDS011;4220;42.502;24.188;2022-12-28T07:38:12;123.00;;;77.67;;
8365;SDS011;4220;42.502;24.188;2022-12-28T07:40:38;113.07;;;68.77;;
8365;SDS011;4220;42.502;24.188;2022-12-28T07:43:05;102.77;;;69.70;;
8365;SDS011;4220;42.502;24.188;2022-12-28T07:45:32;97.07;;;60.87;;
8365;SDS011;4220;42.502;24.188;2022-12-28T07:47:59;96.97;;;62.63;;
8365;SDS011;4220;42.502;24.188;2022-12-28T07:50:26;81.50;;;59.47;;
8365;SDS011;4220;42.502;24.188;2022-12-28T07:52:54;75.20;;;53.87;;
8365;SDS011;4220;42.502;24.188;2022-12-28T07:55:21;87.43;;;59.77;;
8365;SDS011;4220;42.502;24.188;2022-12-28T07:57:50;110.93;;;77.77;;
8365;SDS011;4220;42.502;24.188;2022-12-28T08:00:17;117.43;;;85.23;;
8365;SDS011;4220;42.502;24.188;2022-12-28T08:02:44;121.80;;;84.90;;
8365;SDS011;4220;42.502;24.188;2022-12-28T08:05:11;126.57;;;84.23;;
8365;SDS011;4220;42.502;24.188;2022-12-28T08:07:38;130.67;;;93.27;;
8365;SDS011;4220;42.502;24.188;2022-12-28T08:10:06;120.37;;;84.57;;
8365;SDS011;4220;42.502;24.188;2022-12-28T08:12:34;132.10;;;90.60;;
8365;SDS011;4220;42.502;24.188;2022-12-28T08:15:01;114.00;;;78.63;;
8365;SDS011;4220;42.502;24.188;2022-12-28T08:17:28;136.77;;;79.97;;
8365;SDS011;4220;42.502;24.188;2022-12-28T08:19:54;104.57;;;61.70;;
8365;SDS011;4220;42.502;24.188;2022-12-28T08:22:22;87.43;;;53.53;;
8365;SDS011;4220;42.502;24.188;2022-12-28T08:24:49;151.77;;;80.33;;
8365;SDS011;4220;42.502;24.188;2022-12-28T08:27:17;191.33;;;97.67;;
8365;SDS011;4220;42.502;24.188;2022-12-28T08:29:44;133.13;;;70.93;;
8365;SDS011;4220;42.502;24.188;2022-12-28T08:32:11;105.97;;;64.00;;
8365;SDS011;4220;42.502;24.188;2022-12-28T08:34:38;89.87;;;59.23;;
8365;SDS011;4220;42.502;24.188;2022-12-28T08:37:05;99.10;;;61.00;;
8365;SDS011;4220;42.502;24.188;2022-12-28T08:39:31;80.33;;;53.37;;
8365;SDS011;4220;42.502;24.188;2022-12-28T08:41:58;79.87;;;56.63;;
8365;SDS011;4220;42.502;24.188;2022-12-28T08:44:27;64.73;;;45.53;;
8365;SDS011;4220;42.502;24.188;2022-12-28T08:46:53;70.50;;;47.40;;
8365;SDS011;4220;42.502;24.188;2022-12-28T08:49:22;82.37;;;54.67;;
8365;SDS011;4220;42.502;24.188;2022-12-28T08:51:49;82.03;;;55.07;;
8365;SDS011;4220;42.502;24.188;2022-12-28T08:54:15;79.43;;;53.07;;
8365;SDS011;4220;42.502;24.188;2022-12-28T08:56:43;88.50;;;54.77;;
8365;SDS011;4220;42.502;24.188;2022-12-28T08:59:12;80.50;;;52.10;;
8365;SDS011;4220;42.502;24.188;2022-12-28T09:01:41;79.57;;;53.47;;
8365;SDS011;4220;42.502;24.188;2022-12-28T09:04:10;86.20;;;54.67;;
8365;SDS011;4220;42.502;24.188;2022-12-28T09:06:39;84.10;;;54.40;;
8365;SDS011;4220;42.502;24.188;2022-12-28T09:09:09;80.57;;;53.40;;
8365;SDS011;4220;42.502;24.188;2022-12-28T09:11:37;83.97;;;52.83;;
8365;SDS011;4220;42.502;24.188;2022-12-28T09:14:05;90.27;;;54.93;;
8365;SDS011;4220;42.502;24.188;2022-12-28T09:16:33;78.70;;;53.07;;
8365;SDS011;4220;42.502;24.188;2022-12-28T09:19:02;113.63;;;81.27;;
8365;SDS011;4220;42.502;24.188;2022-12-28T09:21:31;144.80;;;94.70;;
8365;SDS011;4220;42.502;24.188;2022-12-28T09:24:00;143.63;;;98.97;;
8365;SDS011;4220;42.502;24.188;2022-12-28T09:26:28;190.50;;;139.20;;
8365;SDS011;4220;42.502;24.188;2022-12-28T09:28:56;151.13;;;100.83;;
8365;SDS011;4220;42.502;24.188;2022-12-28T09:31:25;120.30;;;82.73;;
8365;SDS011;4220;42.502;24.188;2022-12-28T09:33:53;108.43;;;74.03;;
8365;SDS011;4220;42.502;24.188;2022-12-28T09:36:28;115.90;;;83.87;;
8365;SDS011;4220;42.502;24.188;2022-12-28T09:38:57;172.80;;;111.37;;
8365;SDS011;4220;42.502;24.188;2022-12-28T09:41:26;120.57;;;82.47;;
8365;SDS011;4220;42.502;24.188;2022-12-28T09:44:00;139.23;;;93.70;;
8365;SDS011;4220;42.502;24.188;2022-12-28T09:46:35;91.40;;;64.87;;
8365;SDS011;4220;42.502;24.188;2022-12-28T09:49:09;81.10;;;51.97;;
8365;SDS011;4220;42.502;24.188;2022-12-28T09:51:45;82.57;;;54.40;;
8365;SDS011;4220;42.502;24.188;2022-12-28T09:54:17;75.07;;;50.57;;
8365;SDS011;4220;42.502;24.188;2022-12-28T09:56:44;65.90;;;40.83;;
8365;SDS011;4220;42.502;24.188;2022-12-28T09:59:14;55.33;;;38.87;;
8365;SDS011;4220;42.502;24.188;2022-12-28T10:01:43;49.23;;;33.67;;
8365;SDS011;4220;42.502;24.188;2022-12-28T10:04:16;44.03;;;28.80;;
8365;SDS011;4220;42.502;24.188;2022-12-28T10:06:44;35.90;;;24.03;;
8365;SDS011;4220;42.502;24.188;2022-12-28T10:09:14;24.53;;;17.17;;
8365;SDS011;4220;42.502;24.188;2022-12-28T10:11:49;17.07;;;12.30;;
8365;SDS011;4220;42.502;24.188;2022-12-28T10:14:17;15.37;;;10.43;;
8365;SDS011;4220;42.502;24.188;2022-12-28T10:16:46;13.20;;;9.33;;
8365;SDS011;4220;42.502;24.188;2022-12-28T10:19:15;13.90;;;9.77;;
8365;SDS011;4220;42.502;24.188;2022-12-28T10:21:45;10.43;;;8.33;;
8365;SDS011;4220;42.502;24.188;2022-12-28T10:24:12;13.77;;;9.77;;
8365;SDS011;4220;42.502;24.188;2022-12-28T10:26:40;26.43;;;16.67;;
8365;SDS011;4220;42.502;24.188;2022-12-28T10:29:12;44.63;;;27.70;;
8365;SDS011;4220;42.502;24.188;2022-12-28T10:31:44;46.23;;;32.63;;
8365;SDS011;4220;42.502;24.188;2022-12-28T10:34:22;38.60;;;24.53;;
8365;SDS011;4220;42.502;24.188;2022-12-28T10:36:51;33.13;;;22.27;;
8365;SDS011;4220;42.502;24.188;2022-12-28T10:39:22;28.83;;;15.53;;
8365;SDS011;4220;42.502;24.188;2022-12-28T10:41:50;12.63;;;8.33;;
8365;SDS011;4220;42.502;24.188;2022-12-28T10:44:19;14.80;;;11.03;;
8365;SDS011;4220;42.502;24.188;2022-12-28T10:46:53;14.63;;;10.47;;
8365;SDS011;4220;42.502;24.188;2022-12-28T10:49:24;17.83;;;11.53;;
8365;SDS011;4220;42.502;24.188;2022-12-28T10:52:03;13.07;;;9.10;;
8365;SDS011;4220;42.502;24.188;2022-12-28T10:54:33;10.53;;;8.37;;
8365;SDS011;4220;42.502;24.188;2022-12-28T10:57:01;13.83;;;7.57;;
8365;SDS011;4220;42.502;24.188;2022-12-28T10:59:29;10.63;;;8.40;;
8365;SDS011;4220;42.502;24.188;2022-12-28T11:02:17;12.10;;;8.23;;
8365;SDS011;4220;42.502;24.188;2022-12-28T11:04:52;10.40;;;8.00;;
8365;SDS011;4220;42.502;24.188;2022-12-28T11:07:29;12.80;;;9.47;;
8365;SDS011;4220;42.502;24.188;2022-12-28T11:10:14;29.60;;;17.93;;
8365;SDS011;4220;42.502;24.188;2022-12-28T11:12:48;22.10;;;17.10;;
8365;SDS011;4220;42.502;24.188;2022-12-28T11:15:17;18.07;;;13.43;;
8365;SDS011;4220;42.502;24.188;2022-12-28T11:17:47;18.47;;;14.57;;
8365;SDS011;4220;42.502;24.188;2022-12-28T11:20:19;10.40;;;9.13;;
8365;SDS011;4220;42.502;24.188;2022-12-28T11:22:50;13.87;;;9.00;;
8365;SDS011;4220;42.502;24.188;2022-12-28T11:25:18;14.57;;;10.10;;
8365;SDS011;4220;42.502;24.188;2022-12-28T11:27:47;11.57;;;8.20;;
8365;SDS011;4220;42.502;24.188;2022-12-28T11:30:14;17.77;;;13.80;;
8365;SDS011;4220;42.502;24.188;2022-12-28T11:32:45;15.03;;;11.73;;
8365;SDS011;4220;42.502;24.188;2022-12-28T11:35:15;17.20;;;13.00;;
8365;SDS011;4220;42.502;24.188;2022-12-28T11:37:47;13.97;;;10.97;;
8365;SDS011;4220;42.502;24.188;2022-12-28T12:12:59;18.48;;;13.52;;
8365;SDS011;4220;42.502;24.188;2022-12-28T12:15:33;13.33;;;10.10;;
8365;SDS011;4220;42.502;24.188;2022-12-28T12:18:06;12.13;;;8.30;;
8365;SDS011;4220;42.502;24.188;2022-12-28T12:20:43;12.03;;;8.50;;
8365;SDS011;4220;42.502;24.188;2022-12-28T12:23:27;16.00;;;10.57;;
8365;SDS011;4220;42.502;24.188;2022-12-28T12:26:00;10.75;;;8.25;;
8365;SDS011;4220;42.502;24.188;2022-12-28T12:28:41;13.90;;;10.05;;
8365;SDS011;4220;42.502;24.188;2022-12-28T12:31:15;12.73;;;10.87;;
8365;SDS011;4220;42.502;24.188;2022-12-28T12:33:49;14.80;;;11.65;;
8365;SDS011;4220;42.502;24.188;2022-12-28T12:36:21;16.63;;;11.10;;
8365;SDS011;4220;42.502;24.188;2022-12-28T12:39:12;13.73;;;10.00;;
8365;SDS011;4220;42.502;24.188;2022-12-28T12:42:00;19.90;;;14.43;;
8365;SDS011;4220;42.502;24.188;2022-12-28T12:44:39;28.40;;;16.77;;
8365;SDS011;4220;42.502;24.188;2022-12-28T12:47:19;24.60;;;17.57;;
8365;SDS011;4220;42.502;24.188;2022-12-28T12:50:09;30.77;;;20.23;;
8365;SDS011;4220;42.502;24.188;2022-12-28T12:53:13;28.00;;;16.37;;
8365;SDS011;4220;42.502;24.188;2022-12-28T12:55:56;23.07;;;14.97;;
8365;SDS011;4220;42.502;24.188;2022-12-28T12:58:31;32.60;;;22.67;;
8365;SDS011;4220;42.502;24.188;2022-12-28T13:01:23;36.27;;;24.33;;
8365;SDS011;4220;42.502;24.188;2022-12-28T13:03:58;56.83;;;38.13;;
8365;SDS011;4220;42.502;24.188;2022-12-28T13:06:32;43.97;;;28.53;;
8365;SDS011;4220;42.502;24.188;2022-12-28T13:09:03;55.70;;;32.90;;
8365;SDS011;4220;42.502;24.188;2022-12-28T13:11:34;55.00;;;32.90;;
8365;SDS011;4220;42.502;24.188;2022-12-28T13:14:02;33.33;;;21.67;;
8365;SDS011;4220;42.502;24.188;2022-12-28T13:16:32;20.20;;;13.80;;
8365;SDS011;4220;42.502;24.188;2022-12-28T13:18:59;19.43;;;11.80;;
8365;SDS011;4220;42.502;24.188;2022-12-28T13:21:29;19.33;;;13.87;;
8365;SDS011;4220;42.502;24.188;2022-12-28T13:24:16;28.50;;;18.30;;
8365;SDS011;4220;42.502;24.188;2022-12-28T13:26:44;24.17;;;14.33;;
8365;SDS011;4220;42.502;24.188;2022-12-28T13:29:12;20.50;;;13.70;;
8365;SDS011;4220;42.502;24.188;2022-12-28T13:31:44;35.20;;;23.57;;
8365;SDS011;4220;42.502;24.188;2022-12-28T13:34:15;19.97;;;14.63;;
8365;SDS011;4220;42.502;24.188;2022-12-28T13:36:47;66.23;;;40.73;;
8365;SDS011;4220;42.502;24.188;2022-12-28T13:39:17;50.03;;;29.90;;
8365;SDS011;4220;42.502;24.188;2022-12-28T13:41:46;48.77;;;32.20;;
8365;SDS011;4220;42.502;24.188;2022-12-28T13:44:18;42.97;;;30.10;;
8365;SDS011;4220;42.502;24.188;2022-12-28T13:46:52;34.73;;;25.80;;
8365;SDS011;4220;42.502;24.188;2022-12-28T13:49:25;27.70;;;19.53;;
8365;SDS011;4220;42.502;24.188;2022-12-28T13:51:56;24.67;;;18.20;;
8365;SDS011;4220;42.502;24.188;2022-12-28T13:54:23;83.73;;;49.67;;
8365;SDS011;4220;42.502;24.188;2022-12-28T13:56:51;96.00;;;52.87;;
8365;SDS011;4220;42.502;24.188;2022-12-28T13:59:21;57.03;;;33.27;;
8365;SDS011;4220;42.502;24.188;2022-12-28T14:01:49;98.47;;;50.53;;
8365;SDS011;4220;42.502;24.188;2022-12-28T14:04:19;81.10;;;46.63;;
8365;SDS011;4220;42.502;24.188;2022-12-28T14:06:49;53.47;;;35.33;;
8365;SDS011;4220;42.502;24.188;2022-12-28T14:09:17;84.30;;;53.17;;
8365;SDS011;4220;42.502;24.188;2022-12-28T14:11:45;52.80;;;33.47;;
8365;SDS011;4220;42.502;24.188;2022-12-28T14:14:13;63.27;;;39.83;;
8365;SDS011;4220;42.502;24.188;2022-12-28T14:16:41;49.50;;;32.63;;
8365;SDS011;4220;42.502;24.188;2022-12-28T14:19:09;54.07;;;36.93;;
8365;SDS011;4220;42.502;24.188;2022-12-28T14:21:39;35.63;;;23.97;;
8365;SDS011;4220;42.502;24.188;2022-12-28T14:24:08;68.20;;;44.07;;
8365;SDS011;4220;42.502;24.188;2022-12-28T14:26:36;59.87;;;41.97;;
8365;SDS011;4220;42.502;24.188;2022-12-28T14:29:09;64.03;;;43.60;;
8365;SDS011;4220;42.502;24.188;2022-12-28T14:31:39;37.20;;;27.13;;
8365;SDS011;4220;42.502;24.188;2022-12-28T14:34:06;30.97;;;23.80;;
8365;SDS011;4220;42.502;24.188;2022-12-28T14:36:48;46.67;;;32.93;;
8365;SDS011;4220;42.502;24.188;2022-12-28T14:39:21;50.03;;;33.43;;
8365;SDS011;4220;42.502;24.188;2022-12-28T14:41:54;26.80;;;20.20;;
8365;SDS011;4220;42.502;24.188;2022-12-28T14:44:24;23.63;;;16.90;;
8365;SDS011;4220;42.502;24.188;2022-12-28T14:46:53;19.60;;;14.93;;
8365;SDS011;4220;42.502;24.188;2022-12-28T14:49:28;17.17;;;12.90;;
8365;SDS011;4220;42.502;24.188;2022-12-28T14:55:03;25.63;;;17.33;;
8365;SDS011;4220;42.502;24.188;2022-12-28T14:57:45;29.97;;;20.27;;
8365;SDS011;4220;42.502;24.188;2022-12-28T15:00:20;35.50;;;19.93;;
8365;SDS011;4220;42.502;24.188;2022-12-28T15:02:49;23.47;;;16.97;;
8365;SDS011;4220;42.502;24.188;2022-12-28T15:05:36;18.90;;;13.33;;
8365;SDS011;4220;42.502;24.188;2022-12-28T15:08:07;25.90;;;17.73;;
8365;SDS011;4220;42.502;24.188;2022-12-28T15:10:37;31.67;;;22.97;;
8365;SDS011;4220;42.502;24.188;2022-12-28T15:13:06;54.20;;;37.13;;
8365;SDS011;4220;42.502;24.188;2022-12-28T15:15:33;59.03;;;39.90;;
8365;SDS011;4220;42.502;24.188;2022-12-28T15:18:00;61.27;;;39.20;;
8365;SDS011;4220;42.502;24.188;2022-12-28T15:20:27;67.53;;;42.60;;
8365;SDS011;4220;42.502;24.188;2022-12-28T15:22:54;57.13;;;40.30;;
8365;SDS011;4220;42.502;24.188;2022-12-28T15:25:21;52.70;;;39.53;;
8365;SDS011;4220;42.502;24.188;2022-12-28T15:27:50;63.73;;;39.97;;
8365;SDS011;4220;42.502;24.188;2022-12-28T15:30:17;49.47;;;32.63;;
8365;SDS011;4220;42.502;24.188;2022-12-28T15:32:44;55.47;;;37.47;;
8365;SDS011;4220;42.502;24.188;2022-12-28T15:35:11;64.40;;;44.30;;
8365;SDS011;4220;42.502;24.188;2022-12-28T15:37:38;57.77;;;37.43;;
8365;SDS011;4220;42.502;24.188;2022-12-28T15:40:05;60.43;;;36.30;;
8365;SDS011;4220;42.502;24.188;2022-12-28T15:42:33;48.03;;;32.60;;